Brecht, Belgium
Current Conditions -  °F | °C
As of 5:50 PM on Monday 22 Dec 2014 (Local Time) from EBAW Reporting Station
Broken Clouds Broken Clouds  
Wind Chill: 55°   Ceiling: 2000
Heat Index: 55°   Visibility: 6mi
Dew Point: 48°   Wind: 21mph
Humidity: 77%   Direction: 250°WSW
Pressure: 30.09"   Gusts: 35mph
Location:  51.35°N, 4.64°E
Report Text: EBAW 221650Z 25018G30KT 9999 BKN020 13/09 Q1019 TEMPO 25022G35KT
Loading
Personal Weather Stations






























Interactive Weather Map New forecast layout! Learn more

10-Day Weather Forecast

Advertisements
Track Severe Weather on mobile